Station: Lancelin (Defence)  

  Atmospheric Gas Attenuation - ITU Rec 676-11   ----------------- dB/100km -----------------
Date Time Temp RH % AH g/m3 Dew Point Wind Direction Speed kph Gust kph Barometer mB Rainfall Since 9am 24GHz 47GHz 76GHz 122GHz 134GHz 241GHz
08/05 09:20 18.3 51 7.97 8 26 35 1027.7 0 18.0 24.2 35.9 93.8 86.2 296.2
08/05 09:10 18.1 52 8.03 8.1 19 22 1027.8 0 18.2 24.3 36.2 94.6 87.2 299.6
08/05 09:00 17.8 53 8.04 8.1 22 33 1027.9 0 18.2 24.4 36.4 95.1 87.6 301.1
08/05 08:50 17.5 54 8.05 8.1 20 28 1028 0 18.2 24.5 36.5 95.6 88.1 302.7
08/05 08:40 17.1 55 8.01 8 26 35 1028 0 18.2 24.6 36.6 95.6 88.0 302.5
08/05 08:30 16.8 56 8.01 8 22 35 1028.1 0 18.2 24.7 36.7 96.0 88.4 303.7
08/05 08:20 16.4 58 8.09 8.1 20 26 1028 0 18.4 24.9 37.2 97.3 89.8 308.7
08/05 08:10 15.9 59 7.99 7.9 17 24 1028 0 18.2 24.9 37.0 96.9 89.1 306.2
08/05 08:00 15.5 60 7.93 7.8 20 28 1028 0 18.1 24.9 37.0 96.7 88.8 305.0
08/05 07:50 15.1 61 7.87 7.8 19 22 1027.9 0 18.0 24.9 36.9 96.6 88.5 303.9
08/05 07:40 14.8 63 7.98 7.8 22 28 1027.8 0 18.2 25.2 37.5 98.1 90.3 309.9
08/05 07:30 14.3 65 7.99 7.8 17 28 1027.7 0 18.3 25.3 37.8 98.8 91.0 312.3
08/05 07:20 13.8 65 7.74 7.5 17 28 1027.6 0 17.7 25.1 37.0 96.8 88.3 302.9
08/05 07:10 13.7 65 7.7 7.4 15 20 1027.5 0 17.7 25.0 36.9 96.5 87.9 301.4
08/05 07:00 13.7 66 7.82 7.5 19 28 1027.4 0 17.9 25.2 37.4 97.7 89.4 306.9
08/05 06:50 13.7 65 7.7 7.4 13 19 1027.4 0 17.7 25.0 36.9 96.5 87.9 301.4
08/05 06:40 13.8 65 7.74 7.5 19 24 1027.3 0 17.7 25.0 37.0 96.8 88.3 302.8
08/05 06:30 13.8 65 7.74 7.3 17 24 1027.2 0 17.7 25.0 37.0 96.8 88.3 302.8
08/05 06:20 13.9 65 7.79 7.4 17 20 1027.2 0 17.8 25.1 37.1 97.2 88.8 304.7
08/05 06:10 14 64 7.72 7.3 19 22 1027.2 0 17.7 25.0 36.8 96.3 87.8 301.1
08/05 06:00 14.1 64 7.77 7.4 17 26 1027.1 0 17.8 25.0 37.0 96.7 88.3 303.0
08/05 05:50 14.1 64 7.77 7.4 19 28 1027.1 0 17.8 25.0 37.0 96.7 88.3 303.0
08/05 05:40 14.2 63 7.69 7.2 17 24 1027 0 17.6 24.8 36.6 95.7 87.2 299.0
08/05 05:30 14.3 63 7.74 7.4 17 26 1027 0 17.7 24.9 36.8 96.1 87.7 300.9
08/05 05:20 14.4 63 7.79 7.4 19 24 1027 0 17.8 24.9 36.9 96.5 88.2 302.7
08/05 05:10 14.3 62 7.62 7.1 13 17 1027 0 17.5 24.7 36.3 94.9 86.1 295.5
08/05 05:00 14.4 62 7.66 7.2 13 22 1026.9 0 17.5 24.7 36.4 95.2 86.5 296.9
08/05 04:50 14.4 63 7.79 7.4 9 11 1027 0 17.8 24.9 36.9 96.5 88.2 302.7
08/05 04:40 14.2 63 7.69 7.2 15 17 1026.9 0 17.6 24.8 36.6 95.7 87.1 299.0
08/05 04:30 14.2 63 7.69 7.3 11 17 1026.9 0 17.6 24.8 36.6 95.7 87.1 299.0
08/05 04:20 14.3 62 7.62 7.1 13 20 1026.9 0 17.5 24.7 36.3 94.9 86.1 295.4
08/05 04:10 14.5 60 7.46 7 11 15 1026.9 0 17.1 24.4 35.6 93.0 83.9 287.6
08/05 04:00 14.8 61 7.73 7.4 11 17 1026.9 0 17.7 24.7 36.5 95.4 87.0 298.5
08/05 03:50 14.6 60 7.51 7.1 9 13 1026.9 0 17.2 24.4 35.7 93.4 84.4 289.4
08/05 03:40 14.7 60 7.55 7.2 9 13 1026.9 0 17.3 24.5 35.8 93.7 84.8 290.9
08/05 03:30 14.7 60 7.55 7 7 13 1026.8 0 17.3 24.5 35.8 93.7 84.8 290.8
08/05 03:20 14.8 60 7.6 7.1 6 11 1026.9 0 17.4 24.5 36.0 94.1 85.3 292.7
08/05 03:10 14.9 61 7.77 7.4 7 7 1027 0 17.8 24.8 36.6 95.7 87.4 299.9
08/05 03:00 14.6 61 7.63 7.2 6 11 1027 0 17.5 24.6 36.2 94.6 85.9 294.8
08/05 02:50 14.6 62 7.76 7.4 6 7 1027 0 17.8 24.8 36.7 96.0 87.6 300.6
08/05 02:40 14.7 63 7.93 7.7 7 9 1027.1 0 18.1 25.1 37.3 97.6 89.7 307.9
08/05 02:30 14.6 65 8.13 8.1 9 15 1027 0 18.5 25.4 38.1 99.8 92.4 317.3
08/05 02:20 14 70 8.44 8.6 9 13 1026.9 0 19.2 26.1 39.7 103.9 97.1 334.0
08/05 02:10 13 76 8.62 9 7 9 1027 0 19.7 26.7 40.9 107.2 100.8 346.7
08/05 02:00 11.6 83 8.63 8.8 7 11 1026.9 0 19.7 27.1 41.7 109.2 102.8 353.4
08/05 01:50 8 83 6.86 5.3 6 7 1026.9 0 16.1 25.2 36.1 94.3 83.0 283.5
08/05 01:40 5.7 79 5.63 2.3 4 6 1026.9 0 13.6 23.8 32.1 83.6 68.8 233.4
08/05 01:30 6.4 79 5.89 3 4 7 1027 0 14.1 24.1 32.9 85.6 71.6 243.4
08/05 01:20 6.3 76 5.63 2.5 0 0 1027 0 13.5 23.7 31.9 83.0 68.3 231.6
08/05 01:10 6.6 77 5.82 2.8 0 0 1027 0 13.9 23.9 32.5 84.7 70.5 239.5
08/05 01:00 7.1 76 5.93 3.2 2 2 1027 0 14.2 24.0 32.7 85.3 71.5 243.1
08/05 00:50 7.3 76 6.01 3.3 4 4 1027 0 14.3 24.0 33.0 86.0 72.3 246.1
08/05 00:40 7.7 74 6 3.3 0 0 1026.9 0 14.3 23.9 32.8 85.4 71.8 244.4
08/05 00:30 9 71 6.26 4 6 9 1026.9 0 14.8 24.0 33.3 86.7 74.0 252.3
08/05 00:20 10.9 74 7.36 6.4 9 9 1026.8 0 17.1 25.2 36.8 96.2 86.5 296.3
08/05 00:10 11 73 7.31 6.3 9 9 1026.9 0 17.0 25.1 36.6 95.6 85.7 293.6
08/05 00:00 11 72 7.21 6.2 7 9 1026.9 0 16.7 25.0 36.2 94.5 84.4 289.0
07/05 23:50 11.2 72 7.3 6.3 9 9 1026.9 0 16.9 25.0 36.4 95.2 85.4 292.4
07/05 23:40 11.4 71 7.29 6.3 9 11 1026.9 0 16.9 25.0 36.3 94.9 85.0 291.2
07/05 23:30 11.6 71 7.38 6.5 11 13 1027 0 17.1 25.1 36.6 95.6 86.0 294.6
07/05 23:20 11.2 73 7.4 6.5 13 13 1026.9 0 17.1 25.2 36.8 96.3 86.7 297.0
07/05 23:10 11 72 7.21 6.1 11 11 1027 0 16.7 25.0 36.2 94.5 84.4 289.0
07/05 23:00 10.9 72 7.16 6.1 9 11 1027 0 16.6 24.9 36.0 94.1 83.9 287.1
07/05 22:50 11.1 70 7.05 5.8 9 9 1027 0 16.4 24.7 35.5 92.7 82.2 281.3
07/05 22:40 11.7 68 7.11 6 9 9 1027 0 16.5 24.6 35.5 92.6 82.4 281.9
07/05 22:30 12.2 68 7.34 6.5 9 11 1027 0 17.0 24.8 36.1 94.5 84.8 290.6
07/05 22:20 12.3 67 7.28 6.3 11 11 1027 0 16.8 24.7 35.9 93.7 83.9 287.5
07/05 22:10 12.5 67 7.37 6.5 11 13 1026.9 0 17.0 24.8 36.1 94.4 84.9 290.8
07/05 22:00 12.5 66 7.26 6.3 11 13 1026.9 0 16.8 24.6 35.7 93.3 83.5 285.8
07/05 21:50 12.3 67 7.28 6.3 9 11 1026.9 0 16.8 24.7 35.9 93.7 83.9 287.5
07/05 21:40 12.5 66 7.26 6.3 9 9 1026.8 0 16.8 24.6 35.7 93.3 83.5 285.8
07/05 21:30 12.6 65 7.19 6.2 7 11 1026.8 0 16.6 24.5 35.4 92.4 82.4 282.3
07/05 21:20 13 64 7.26 6.5 9 9 1026.7 0 16.8 24.5 35.5 92.7 82.9 284.0
07/05 21:10 12.6 65 7.19 6.2 6 7 1026.7 0 16.6 24.5 35.4 92.4 82.4 282.3
07/05 21:00 12.4 64 6.99 5.8 7 9 1026.6 0 16.2 24.2 34.7 90.5 80.1 274.0
07/05 20:50 12.9 62 6.99 5.8 7 7 1026.4 0 16.2 24.1 34.4 90.0 79.6 272.2
07/05 20:40 13.4 59 6.86 5.5 7 7 1026.4 0 15.9 23.7 33.7 88.1 77.4 264.8
07/05 20:30 14.6 57 7.13 6.2 9 11 1026.4 0 16.4 23.8 34.3 89.5 79.6 272.6
07/05 20:20 14.8 56 7.09 6.3 9 11 1026.4 0 16.3 23.7 34.0 88.8 78.9 270.2
07/05 20:10 15.1 55 7.1 6.1 9 11 1026.3 0 16.3 23.7 33.9 88.6 78.7 269.6
07/05 20:00 15.5 54 7.14 6.2 9 11 1026.3 0 16.4 23.6 33.9 88.6 78.8 269.9
07/05 19:50 15.9 53 7.18 6.3 7 9 1026.2 0 16.5 23.6 33.9 88.5 78.9 270.3
07/05 19:40 16.2 52 7.17 6.3 9 9 1026 0 16.4 23.5 33.7 88.1 78.5 268.8
07/05 19:30 16.3 51 7.08 6.2 9 11 1026 0 16.2 23.3 33.3 87.1 77.3 264.6
07/05 19:20 16.6 51 7.2 6.4 9 9 1025.9 0 16.5 23.4 33.7 87.9 78.4 268.8
07/05 19:10 17 49 7.09 6.2 7 9 1025.7 0 16.2 23.1 33.1 86.4 76.7 262.7
07/05 19:00 17 50 7.23 6.5 9 13 1025.6 0 16.5 23.3 33.6 87.8 78.4 268.6
07/05 18:50 16.9 51 7.33 6.7 9 11 1025.5 0 16.7 23.5 34.0 88.8 79.7 273.2
07/05 18:40 17 50 7.23 6.5 7 9 1025.4 0 16.5 23.3 33.6 87.7 78.4 268.6
07/05 18:30 17.6 47 7.05 6.2 9 11 1025.4 0 16.1 22.9 32.7 85.3 75.6 259.0
07/05 18:20 18.2 44 6.84 6 9 11 1025.2 0 15.7 22.5 31.7 82.7 72.6 248.4
07/05 18:10 19.2 43 7.09 6.3 9 11 1025.1 0 16.1 22.6 32.2 84.0 74.6 255.6
07/05 18:00 20.1 40 6.95 6.1 13 19 1025 0 15.8 22.2 31.3 81.8 72.1 247.1
07/05 17:50 20.7 37 6.66 5.8 15 19 1024.9 0 15.2 21.6 30.1 78.5 68.3 233.7
07/05 17:40 21.1 37 6.82 5.8 13 15 1024.8 0 15.5 21.7 30.5 79.6 69.8 238.9
07/05 17:30 21.7 36 6.87 6 15 20 1024.8 0 15.6 21.7 30.5 79.5 69.8 239.1
07/05 17:20 22.3 35 6.91 6.1 15 20 1024.7 0 15.6 21.6 30.4 79.2 69.7 238.9
07/05 17:10 22.8 34 6.91 6.1 13 17 1024.7 0 15.6 21.5 30.2 78.8 69.3 237.5
07/05 17:00 23.2 32 6.65 5.6 15 24 1024.7 0 15.1 21.0 29.2 76.1 66.1 226.3
07/05 16:50 23.5 31 6.56 5.4 19 24 1024.8 0 14.9 20.8 28.8 75.0 64.9 222.0

Last Refresh: 08-May-2026 11:03:25

Bureau of Meteorology